Time;durP1;ratioP1;P1;durP2;ratioP2;P2;SDS_P1;SDS_P2;PMS_P1;PMS_P2;Temp;Humidity;BMP_temperature;BMP_pressure;BME280_temperature;BME280_humidity;BME280_pressure;Samples;Min_cycle;Max_cycle;Signal;HPM_P1;HPM_P2
2022/11/06 00:02:03;;;;;;;8.88;6.20;;;9.80;61.90;;;;;;5005666;28;20042;-71
2022/11/06 00:04:29;;;;;;;8.20;6.13;;;9.80;61.90;;;;;;5004433;28;20046;-71
2022/11/06 00:06:55;;;;;;;11.48;6.30;;;9.80;61.80;;;;;;5005460;28;20533;-71
2022/11/06 00:09:21;;;;;;;8.35;6.45;;;9.80;61.80;;;;;;5001815;28;20184;-71
2022/11/06 00:11:48;;;;;;;9.23;6.75;;;9.80;61.80;;;;;;5005362;28;20095;-72
2022/11/06 00:14:15;;;;;;;7.53;6.57;;;9.80;61.70;;;;;;5003923;28;20555;-71
2022/11/06 00:16:42;;;;;;;7.97;6.53;;;9.80;61.70;;;;;;5004934;28;20100;-72
2022/11/06 00:19:08;;;;;;;8.52;6.90;;;9.80;61.70;;;;;;5003322;28;20046;-72
2022/11/06 00:21:35;;;;;;;8.18;6.38;;;9.80;61.70;;;;;;5005424;28;20149;-72
2022/11/06 00:24:03;;;;;;;9.95;7.25;;;9.90;62.40;;;;;;5002348;28;20034;-72
2022/11/06 00:26:30;;;;;;;9.25;6.80;;;9.80;61.70;;;;;;5005615;28;20037;-72
2022/11/06 00:28:57;;;;;;;9.63;6.82;;;9.90;61.80;;;;;;4987969;28;20627;-72
2022/11/06 00:31:34;;;;;;;7.05;5.93;;;9.90;61.80;;;;;;4987597;28;20041;-72
2022/11/06 00:34:00;;;;;;;9.65;6.70;;;9.90;61.90;;;;;;5003239;28;20045;-72
2022/11/06 00:36:31;;;;;;;9.30;6.50;;;9.90;61.90;;;;;;5002356;28;20034;-72
2022/11/06 00:38:58;;;;;;;8.50;6.63;;;9.90;61.80;;;;;;5001694;28;20120;-72
2022/11/06 00:41:25;;;;;;;7.35;6.63;;;9.90;61.70;;;;;;5002132;28;20045;-71
2022/11/06 00:44:01;;;;;;;12.45;6.75;;;9.90;61.70;;;;;;5002096;28;20033;-72
2022/11/06 00:46:28;;;;;;;9.52;7.07;;;9.90;61.70;;;;;;4984067;28;20026;-72
2022/11/06 00:48:54;;;;;;;9.07;6.70;;;9.90;61.80;;;;;;5001761;28;20038;-72
2022/11/06 00:51:25;;;;;;;10.13;7.25;;;9.90;61.70;;;;;;4999862;28;20124;-72
2022/11/06 00:53:57;;;;;;;8.95;6.75;;;9.90;61.60;;;;;;4986719;28;20046;-72
2022/11/06 00:56:23;;;;;;;10.32;7.53;;;9.90;61.60;;;;;;4987430;28;20030;-72
2022/11/06 00:58:50;;;;;;;11.02;7.97;;;10.00;61.60;;;;;;5001060;28;20034;-72
2022/11/06 01:01:25;;;;;;;9.25;7.45;;;9.90;61.40;;;;;;5000948;28;21546;-72
2022/11/06 01:03:59;;;;;;;10.98;8.35;;;10.00;61.50;;;;;;5001454;28;20037;-73
2022/11/06 01:06:28;;;;;;;10.45;7.53;;;10.00;61.40;;;;;;5001000;28;20451;-73
2022/11/06 01:08:54;;;;;;;7.93;6.80;;;10.00;61.50;;;;;;5001839;28;20034;-73
2022/11/06 01:11:24;;;;;;;9.43;7.25;;;10.00;61.50;;;;;;5000991;28;20069;-73
2022/11/06 01:13:52;;;;;;;9.90;7.45;;;9.90;61.40;;;;;;5001439;28;20045;-73
2022/11/06 01:16:19;;;;;;;9.05;7.60;;;10.00;61.50;;;;;;4981527;28;20432;-72
2022/11/06 01:18:45;;;;;;;9.13;7.43;;;10.00;61.40;;;;;;5000733;28;20045;-72
2022/11/06 01:21:21;;;;;;;7.97;7.13;;;9.90;61.30;;;;;;4986443;28;20044;-73
2022/11/06 01:23:52;;;;;;;9.35;8.25;;;10.00;61.20;;;;;;4983159;28;20037;-72
2022/11/06 01:26:18;;;;;;;9.90;7.70;;;10.00;61.20;;;;;;4966679;28;20477;-72
2022/11/06 01:28:44;;;;;;;9.25;7.50;;;10.00;61.20;;;;;;5001248;28;20516;-73
2022/11/06 01:31:14;;;;;;;8.85;7.00;;;10.00;61.20;;;;;;5000227;28;20068;-72
2022/11/06 01:33:41;;;;;;;9.30;7.80;;;10.00;61.20;;;;;;5000716;28;20048;-72
2022/11/06 01:36:11;;;;;;;8.48;7.00;;;10.00;61.20;;;;;;5001137;28;20026;-73
2022/11/06 01:38:42;;;;;;;10.82;7.85;;;10.00;61.20;;;;;;5000858;28;20134;-73
2022/11/06 01:41:12;;;;;;;10.13;7.80;;;10.00;61.10;;;;;;4986812;28;20124;-73
2022/11/06 01:44:05;;;;;;;8.82;7.47;;;10.00;61.10;;;;;;5000530;28;20528;-73
2022/11/06 01:46:33;;;;;;;8.95;7.32;;;10.00;61.10;;;;;;4996606;28;20030;-73
2022/11/06 01:49:15;;;;;;;10.10;7.90;;;10.00;60.90;;;;;;4982630;28;20033;-73
2022/11/06 01:51:53;;;;;;;9.45;7.80;;;10.00;60.90;;;;;;5002726;28;20046;-73
2022/11/06 01:54:22;;;;;;;9.00;7.25;;;10.00;60.90;;;;;;5005243;28;20121;-73
2022/11/06 01:56:51;;;;;;;9.07;7.60;;;10.00;60.90;;;;;;4989028;28;20099;-73
2022/11/06 01:59:21;;;;;;;9.43;7.45;;;10.00;61.00;;;;;;5005553;28;20714;-72
2022/11/06 02:01:47;;;;;;;8.50;7.53;;;10.00;61.00;;;;;;4988295;28;20038;-73
2022/11/06 02:04:21;;;;;;;9.30;7.38;;;10.00;60.90;;;;;;5005867;28;20034;-73
2022/11/06 02:06:48;;;;;;;9.48;7.60;;;10.00;60.90;;;;;;5005828;28;20032;-73
2022/11/06 02:09:14;;;;;;;9.88;7.40;;;10.00;60.80;;;;;;4988180;28;20026;-73
2022/11/06 02:11:43;;;;;;;8.38;7.47;;;10.00;60.80;;;;;;5004987;28;20034;-73
2022/11/06 02:14:21;;;;;;;8.57;6.80;;;10.00;60.80;;;;;;4987915;28;20041;-73
2022/11/06 02:16:59;;;;;;;10.38;7.20;;;10.00;60.80;;;;;;5004786;28;20129;-73
2022/11/06 02:19:44;;;;;;;8.45;7.32;;;10.00;60.90;;;;;;4987323;28;20029;-72
2022/11/06 02:22:19;;;;;;;8.15;7.35;;;10.00;60.90;;;;;;5004938;28;20062;-73
2022/11/06 02:25:03;;;;;;;8.80;6.97;;;10.00;60.90;;;;;;4987526;28;20651;-72
2022/11/06 02:27:30;;;;;;;8.00;7.20;;;10.00;61.00;;;;;;5004264;28;20038;-72
2022/11/06 02:30:03;;;;;;;9.85;7.68;;;10.00;61.00;;;;;;4983389;28;20126;-72
2022/11/06 02:32:45;;;;;;;8.80;7.70;;;10.00;61.00;;;;;;5005049;28;20066;-73
2022/11/06 02:35:27;;;;;;;10.13;7.75;;;10.00;60.90;;;;;;5008041;28;20061;-72
2022/11/06 02:38:06;;;;;;;9.20;8.18;;;10.00;60.90;;;;;;5009388;28;20041;-72
2022/11/06 02:40:38;;;;;;;8.88;7.28;;;10.00;60.90;;;;;;5010012;28;20048;-72
2022/11/06 02:43:06;;;;;;;9.13;7.45;;;10.00;61.50;;;;;;4991360;28;20046;-72
2022/11/06 02:45:58;;;;;;;8.65;7.70;;;10.10;60.90;;;;;;5008911;28;20045;-72
2022/11/06 02:48:30;;;;;;;9.35;7.68;;;10.00;60.80;;;;;;5008656;28;20044;-72
2022/11/06 02:50:59;;;;;;;8.68;7.75;;;10.00;60.70;;;;;;4991035;28;20066;-72
2022/11/06 02:53:26;;;;;;;9.60;7.93;;;10.00;60.60;;;;;;5008821;28;20042;-72
2022/11/06 02:56:08;;;;;;;9.15;7.70;;;10.10;60.60;;;;;;5008745;28;20042;-73
2022/11/06 02:58:33;;;;;;;10.30;7.82;;;10.00;60.60;;;;;;5008260;28;20508;-72
2022/11/06 03:01:06;;;;;;;8.55;7.60;;;10.10;60.60;;;;;;4970026;28;20026;-72
2022/11/06 03:03:38;;;;;;;7.90;6.93;;;10.10;60.50;;;;;;5008720;28;20153;-71
2022/11/06 03:06:19;;;;;;;9.90;7.43;;;10.00;60.50;;;;;;5007179;28;20029;-72
2022/11/06 03:08:55;;;;;;;8.88;7.53;;;10.00;60.40;;;;;;5008844;28;20025;-72
2022/11/06 03:11:27;;;;;;;10.02;7.80;;;10.00;60.40;;;;;;5007899;28;20095;-72
2022/11/06 03:14:05;;;;;;;8.88;7.28;;;10.00;60.40;;;;;;5006834;28;20034;-72
2022/11/06 03:16:43;;;;;;;9.07;7.28;;;10.10;60.40;;;;;;5007473;28;20071;-72
2022/11/06 03:19:18;;;;;;;8.73;7.30;;;10.00;60.40;;;;;;5007822;28;20520;-72
2022/11/06 03:21:51;;;;;;;10.25;8.07;;;10.00;60.40;;;;;;5005790;28;20493;-72
2022/11/06 03:24:30;;;;;;;13.82;7.90;;;10.00;60.40;;;;;;5007313;28;20217;-72
2022/11/06 03:26:58;;;;;;;8.82;7.43;;;10.00;60.40;;;;;;5007851;28;20045;-73
2022/11/06 03:29:41;;;;;;;9.50;7.47;;;10.00;60.30;;;;;;5007999;28;20077;-72
2022/11/06 03:32:16;;;;;;;8.63;7.18;;;10.00;60.30;;;;;;5007700;28;20516;-72
2022/11/06 03:35:00;;;;;;;7.90;7.00;;;10.00;60.30;;;;;;4990375;28;20081;-73
2022/11/06 03:37:33;;;;;;;9.10;7.35;;;10.00;60.40;;;;;;5008210;28;20046;-72
2022/11/06 03:40:04;;;;;;;8.70;7.50;;;10.00;60.20;;;;;;5008103;28;20042;-72
2022/11/06 03:42:30;;;;;;;8.50;7.10;;;10.00;60.20;;;;;;5008800;28;20144;-73
2022/11/06 03:45:02;;;;;;;8.98;6.65;;;10.00;60.20;;;;;;4990192;28;20037;-73
2022/11/06 03:47:35;;;;;;;8.85;6.90;;;10.00;60.10;;;;;;4989990;28;20583;-73
2022/11/06 03:50:15;;;;;;;8.05;6.72;;;10.00;60.00;;;;;;5007655;28;20041;-73
2022/11/06 03:52:48;;;;;;;9.43;6.35;;;10.00;60.00;;;;;;4990099;28;20038;-73
2022/11/06 03:55:18;;;;;;;8.50;7.13;;;10.00;60.00;;;;;;5007646;28;20030;-73
2022/11/06 03:57:52;;;;;;;8.93;6.32;;;10.00;60.00;;;;;;4989949;28;20061;-73
2022/11/06 04:00:21;;;;;;;8.50;7.00;;;10.00;59.90;;;;;;5007564;28;20038;-73
2022/11/06 04:03:03;;;;;;;8.50;6.95;;;10.00;59.90;;;;;;4990720;28;20515;-72
2022/11/06 04:05:38;;;;;;;10.20;6.90;;;10.00;59.80;;;;;;4990202;28;20497;-72
2022/11/06 04:13:56;;;;;;;8.52;7.18;;;10.00;59.70;;;;;;5006720;28;20504;-72
2022/11/06 04:16:37;;;;;;;11.20;7.47;;;10.00;59.70;;;;;;5007271;28;20408;-72
2022/11/06 04:19:12;;;;;;;9.32;6.90;;;9.90;59.80;;;;;;5007412;28;20515;-72
2022/11/06 04:22:04;;;;;;;9.93;7.67;;;10.00;60.00;;;;;;5007350;28;20038;-72
2022/11/06 04:27:53;;;;;;;8.88;7.43;;;10.00;60.00;;;;;;5005849;28;20424;-73
2022/11/06 04:30:19;;;;;;;8.30;6.75;;;10.00;60.00;;;;;;5006444;28;20037;-72
2022/11/06 04:33:06;;;;;;;9.70;7.18;;;10.00;60.00;;;;;;5006840;28;20041;-72
2022/11/06 04:35:38;;;;;;;9.45;7.38;;;10.00;60.00;;;;;;5007123;28;20034;-72
2022/11/06 04:38:39;;;;;;;9.60;7.70;;;10.00;59.90;;;;;;5006699;28;20038;-72
2022/11/06 04:41:18;;;;;;;8.82;7.45;;;10.00;59.90;;;;;;5006431;28;20193;-72
2022/11/06 04:43:57;;;;;;;10.27;7.75;;;10.00;59.80;;;;;;5005950;28;20131;-73
2022/11/06 04:46:29;;;;;;;12.13;8.00;;;10.00;59.60;;;;;;5006674;28;20030;-72
2022/11/06 04:48:56;;;;;;;11.27;7.75;;;10.00;59.60;;;;;;4988855;28;20153;-72
2022/11/06 04:51:28;;;;;;;10.10;7.63;;;10.00;59.50;;;;;;5006385;28;20045;-72
2022/11/06 04:53:55;;;;;;;9.57;7.30;;;10.00;59.40;;;;;;5002572;28;20022;-74
2022/11/06 04:56:33;;;;;;;9.93;8.00;;;10.00;59.40;;;;;;5000244;28;20424;-74
2022/11/06 04:58:59;;;;;;;10.45;7.72;;;10.00;59.40;;;;;;5000645;28;20516;-74
2022/11/06 05:01:25;;;;;;;10.85;8.57;;;10.00;59.30;;;;;;5001057;28;20068;-74
2022/11/06 05:03:51;;;;;;;9.35;8.00;;;10.00;59.30;;;;;;4983204;28;20034;-73
2022/11/06 05:06:17;;;;;;;9.05;7.30;;;10.00;59.20;;;;;;5000600;28;20030;-73
2022/11/06 05:08:43;;;;;;;10.88;7.45;;;10.00;59.20;;;;;;5001783;28;20030;-73
2022/11/06 05:11:09;;;;;;;10.27;8.13;;;10.00;59.20;;;;;;4987551;28;20056;-73
2022/11/06 05:13:37;;;;;;;10.70;8.38;;;10.00;59.20;;;;;;5000272;28;20041;-73
2022/11/06 05:16:03;;;;;;;9.63;7.88;;;10.00;59.70;;;;;;5001412;28;20464;-73
2022/11/06 05:18:29;;;;;;;10.07;8.13;;;10.00;59.10;;;;;;5000706;28;20039;-73
2022/11/06 05:23:46;;;;;;;11.63;7.80;;;10.00;59.00;;;;;;5000558;28;20132;-73
2022/11/06 05:26:12;;;;;;;10.10;8.07;;;10.00;59.00;;;;;;5001023;28;20129;-73
2022/11/06 05:28:38;;;;;;;10.75;8.00;;;10.00;58.90;;;;;;4985615;28;20543;-73
2022/11/06 05:31:04;;;;;;;10.10;8.13;;;10.00;58.90;;;;;;5000793;28;20577;-73
2022/11/06 05:33:30;;;;;;;10.25;7.80;;;10.00;58.90;;;;;;5001096;28;20038;-74
2022/11/06 05:36:01;;;;;;;12.45;8.13;;;10.00;58.90;;;;;;4983329;28;20563;-74
2022/11/06 05:38:28;;;;;;;12.40;8.40;;;10.00;58.80;;;;;;5001195;28;20049;-74
2022/11/06 05:40:53;;;;;;;10.25;7.80;;;10.00;58.80;;;;;;4985557;28;20041;-74
2022/11/06 05:43:19;;;;;;;10.95;8.15;;;10.00;58.90;;;;;;5000516;28;20057;-74
2022/11/06 05:45:45;;;;;;;10.18;7.22;;;10.00;58.90;;;;;;4984706;28;20041;-73
2022/11/06 05:48:11;;;;;;;9.07;7.40;;;10.00;58.90;;;;;;5000710;28;20041;-73
2022/11/06 05:50:37;;;;;;;10.55;7.57;;;10.00;58.90;;;;;;5000044;28;20270;-74
2022/11/06 05:53:03;;;;;;;10.02;7.45;;;10.00;58.90;;;;;;5000982;28;20034;-74
2022/11/06 05:55:29;;;;;;;10.43;7.82;;;10.00;58.90;;;;;;5000555;28;20035;-75
2022/11/06 05:57:55;;;;;;;10.93;8.05;;;10.00;58.90;;;;;;4982663;28;20418;-74
2022/11/06 06:00:21;;;;;;;10.15;7.53;;;10.00;58.90;;;;;;5000581;28;20493;-75
2022/11/06 06:02:47;;;;;;;11.25;8.30;;;10.10;58.90;;;;;;5001005;28;20057;-75
2022/11/06 06:05:13;;;;;;;10.18;8.00;;;10.00;58.80;;;;;;4985789;28;20045;-74
2022/11/06 06:07:40;;;;;;;10.30;7.97;;;10.00;58.90;;;;;;4971209;28;20030;-74
2022/11/06 06:10:06;;;;;;;10.98;8.10;;;10.10;59.00;;;;;;5004775;28;20037;-74
2022/11/06 06:12:32;;;;;;;10.68;7.95;;;10.10;58.90;;;;;;5004687;28;20122;-74
2022/11/06 06:14:59;;;;;;;9.13;7.40;;;10.10;59.20;;;;;;4990149;28;20072;-73
2022/11/06 06:17:26;;;;;;;8.85;7.65;;;10.10;58.80;;;;;;5005983;28;20033;-74
2022/11/06 06:19:52;;;;;;;10.38;8.38;;;10.10;58.80;;;;;;5004342;28;20092;-75
2022/11/06 06:22:18;;;;;;;11.85;8.55;;;10.00;58.70;;;;;;5004216;28;20509;-74
2022/11/06 06:24:44;;;;;;;9.63;8.02;;;10.10;58.70;;;;;;4986312;28;20034;-74
2022/11/06 06:27:10;;;;;;;11.05;8.57;;;10.10;58.70;;;;;;5003992;28;20191;-74
2022/11/06 06:29:36;;;;;;;10.38;8.82;;;10.10;58.60;;;;;;5004164;28;20373;-73
2022/11/06 06:32:03;;;;;;;9.70;8.40;;;10.10;58.50;;;;;;5004117;28;20038;-74
2022/11/06 06:34:29;;;;;;;10.77;9.05;;;10.10;58.50;;;;;;5004474;28;20034;-73
2022/11/06 06:36:55;;;;;;;10.23;8.57;;;10.10;58.50;;;;;;5003179;28;20056;-73
2022/11/06 06:39:20;;;;;;;10.10;8.48;;;10.10;58.50;;;;;;5005908;28;20038;-73
2022/11/06 06:41:47;;;;;;;11.02;9.00;;;10.10;58.40;;;;;;5004614;28;20042;-74
2022/11/06 06:44:14;;;;;;;13.23;9.20;;;10.10;58.30;;;;;;4973375;28;20034;-74
2022/11/06 06:46:40;;;;;;;11.55;8.98;;;10.20;58.40;;;;;;4973083;28;20033;-74
2022/11/06 06:49:07;;;;;;;13.95;9.05;;;10.20;58.30;;;;;;4987290;28;20121;-73
2022/11/06 06:51:32;;;;;;;13.27;8.80;;;10.20;58.20;;;;;;5003073;28;20054;-73
2022/11/06 06:53:59;;;;;;;12.88;8.98;;;10.20;58.30;;;;;;5004052;28;20456;-74
2022/11/06 06:56:25;;;;;;;10.98;8.50;;;10.20;58.30;;;;;;4988623;28;20033;-72
2022/11/06 06:58:54;;;;;;;11.15;8.80;;;10.20;58.40;;;;;;4973925;28;20040;-72
2022/11/06 07:01:20;;;;;;;12.13;9.27;;;10.20;58.40;;;;;;4985257;28;20044;-73
2022/11/06 07:03:46;;;;;;;11.88;9.30;;;10.20;58.40;;;;;;5003298;28;20033;-72
2022/11/06 07:06:11;;;;;;;15.77;9.98;;;10.20;58.40;;;;;;5002907;28;20022;-71
2022/11/06 07:08:37;;;;;;;13.32;9.65;;;10.20;58.40;;;;;;5004093;28;20030;-70
2022/11/06 07:11:06;;;;;;;11.43;9.57;;;10.20;58.30;;;;;;5003821;28;20088;-69
2022/11/06 07:13:32;;;;;;;12.13;9.35;;;10.20;58.40;;;;;;5003535;28;20042;-70
2022/11/06 07:16:01;;;;;;;13.02;9.07;;;10.20;58.40;;;;;;4997044;28;20088;-71
2022/11/06 07:18:26;;;;;;;12.00;9.20;;;10.20;58.30;;;;;;5003391;28;20060;-71
2022/11/06 07:20:53;;;;;;;10.93;8.60;;;10.30;58.40;;;;;;5002164;28;20540;-71
2022/11/06 07:23:19;;;;;;;10.30;9.00;;;10.30;58.40;;;;;;4988722;28;20042;-71
2022/11/06 07:25:52;;;;;;;12.45;9.15;;;10.30;58.40;;;;;;4989065;28;20034;-71
2022/11/06 07:28:18;;;;;;;11.43;8.73;;;10.30;58.40;;;;;;5002865;28;20066;-71
2022/11/06 07:30:44;;;;;;;12.32;9.10;;;10.30;58.30;;;;;;5003818;28;20062;-72
2022/11/06 07:33:09;;;;;;;13.25;8.80;;;10.20;58.30;;;;;;5007492;28;20547;-71
2022/11/06 07:35:35;;;;;;;10.60;8.10;;;10.30;58.30;;;;;;4990937;28;20509;-72
2022/11/06 07:38:05;;;;;;;11.25;8.27;;;10.30;58.40;;;;;;5008107;28;20725;-71
2022/11/06 07:40:33;;;;;;;11.25;8.35;;;10.30;58.40;;;;;;5008008;28;20448;-72
2022/11/06 07:43:07;;;;;;;9.63;7.80;;;10.30;58.30;;;;;;4969206;28;20042;-72
2022/11/06 07:45:34;;;;;;;9.27;7.80;;;10.30;58.30;;;;;;4991573;28;20131;-71
2022/11/06 07:48:00;;;;;;;16.40;8.15;;;10.30;58.30;;;;;;4985901;28;20109;-71
2022/11/06 07:50:26;;;;;;;10.02;7.10;;;10.30;58.40;;;;;;5008151;28;20038;-72
2022/11/06 07:52:53;;;;;;;8.55;7.25;;;10.30;58.60;;;;;;4990471;28;20038;-73
2022/11/06 07:55:19;;;;;;;9.27;7.43;;;10.30;58.70;;;;;;5007848;28;20033;-72
2022/11/06 07:57:45;;;;;;;9.52;7.10;;;10.30;58.90;;;;;;5007596;28;20117;-72
2022/11/06 08:00:12;;;;;;;10.23;6.93;;;10.30;59.10;;;;;;4990659;28;20116;-72
2022/11/06 08:02:42;;;;;;;7.95;6.50;;;10.30;59.30;;;;;;4990611;28;20033;-73
2022/11/06 08:05:08;;;;;;;9.50;6.45;;;10.30;59.50;;;;;;5007863;28;20034;-73
2022/11/06 08:07:34;;;;;;;6.95;6.05;;;10.30;59.60;;;;;;5005754;28;20045;-73
2022/11/06 08:10:00;;;;;;;7.78;5.90;;;10.30;59.80;;;;;;5006862;28;20068;-73
2022/11/06 08:12:26;;;;;;;10.50;6.13;;;10.30;60.00;;;;;;5006383;28;20482;-73
2022/11/06 08:14:52;;;;;;;8.25;6.68;;;10.30;60.10;;;;;;4990625;28;20025;-74
2022/11/06 08:17:18;;;;;;;9.70;6.05;;;10.40;60.20;;;;;;5007202;28;20381;-73
2022/11/06 08:19:44;;;;;;;7.35;6.05;;;10.40;60.20;;;;;;5007596;28;20037;-71
2022/11/06 08:22:10;;;;;;;7.85;5.63;;;10.40;60.30;;;;;;5003743;28;20076;-73
2022/11/06 08:24:35;;;;;;;7.57;6.20;;;10.40;61.00;;;;;;5006676;28;20037;-73
2022/11/06 08:27:02;;;;;;;8.98;6.55;;;10.40;60.40;;;;;;5006920;28;20412;-73
2022/11/06 08:29:28;;;;;;;6.20;5.60;;;10.40;60.50;;;;;;5002729;28;20025;-71
2022/11/06 08:31:53;;;;;;;8.27;6.65;;;10.40;60.60;;;;;;5004792;28;20038;-71
2022/11/06 08:34:19;;;;;;;9.50;6.55;;;10.40;59.70;;;;;;4986085;28;20034;-71
2022/11/06 08:36:46;;;;;;;7.55;6.45;;;10.30;58.00;;;;;;4996802;28;20045;-70
2022/11/06 08:39:12;;;;;;;7.95;6.85;;;10.20;57.70;;;;;;5004162;28;20503;-70
2022/11/06 08:41:41;;;;;;;9.48;7.30;;;10.10;58.00;;;;;;5002650;28;20042;-71
2022/11/06 08:44:07;;;;;;;9.32;7.40;;;10.00;57.90;;;;;;5002841;28;20038;-71
2022/11/06 08:46:34;;;;;;;8.32;6.95;;;9.90;57.40;;;;;;4987936;28;20034;-73
2022/11/06 08:48:59;;;;;;;8.57;6.97;;;9.80;57.80;;;;;;5004046;28;20036;-72
2022/11/06 08:51:25;;;;;;;9.43;7.78;;;9.70;58.10;;;;;;5000570;28;20045;-72
2022/11/06 08:53:51;;;;;;;9.95;7.20;;;9.60;58.10;;;;;;5002428;28;20632;-72
2022/11/06 08:56:18;;;;;;;8.25;7.05;;;9.60;58.30;;;;;;5002923;28;20030;-72
2022/11/06 08:58:43;;;;;;;8.65;7.40;;;9.50;58.40;;;;;;5003988;28;20030;-71
2022/11/06 09:01:09;;;;;;;6.55;5.72;;;9.50;59.50;;;;;;5002782;28;20400;-73
2022/11/06 09:03:35;;;;;;;8.25;6.30;;;9.60;61.80;;;;;;4986899;28;20038;-72
2022/11/06 09:06:05;;;;;;;8.15;5.78;;;9.70;62.60;;;;;;4987834;28;20026;-72
2022/11/06 09:08:31;;;;;;;8.85;6.47;;;9.80;62.70;;;;;;5002508;28;20086;-72
2022/11/06 09:10:57;;;;;;;6.75;5.93;;;9.90;62.60;;;;;;4987982;28;20077;-72
2022/11/06 09:13:23;;;;;;;9.02;6.38;;;9.90;62.40;;;;;;5003625;28;20041;-72
2022/11/06 09:15:49;;;;;;;6.93;5.90;;;10.00;62.20;;;;;;5003103;28;20060;-72
2022/11/06 09:18:15;;;;;;;8.40;6.28;;;10.00;61.90;;;;;;4986990;28;20417;-73
2022/11/06 09:20:41;;;;;;;7.43;5.95;;;10.00;61.40;;;;;;4984450;28;20635;-73
2022/11/06 09:23:09;;;;;;;7.93;6.13;;;10.10;60.60;;;;;;5003166;28;20049;-72
2022/11/06 09:25:35;;;;;;;7.63;6.20;;;10.10;60.20;;;;;;5002016;28;20038;-72
2022/11/06 09:28:01;;;;;;;8.68;6.30;;;10.10;59.70;;;;;;5000788;28;20031;-72
2022/11/06 09:30:29;;;;;;;7.82;6.30;;;10.10;59.20;;;;;;4985407;28;20351;-72
2022/11/06 09:32:58;;;;;;;9.88;6.18;;;10.10;58.70;;;;;;5001175;28;20045;-72
2022/11/06 09:35:26;;;;;;;7.22;6.50;;;10.10;58.50;;;;;;4987643;28;20037;-73
2022/11/06 09:37:52;;;;;;;9.73;6.38;;;10.10;58.30;;;;;;5002592;28;20060;-72
2022/11/06 09:40:25;;;;;;;8.10;6.72;;;10.10;58.10;;;;;;4985845;28;20045;-72
2022/11/06 09:43:11;;;;;;;8.40;6.30;;;10.10;58.10;;;;;;5004537;28;20049;-71
2022/11/06 09:45:40;;;;;;;6.25;5.60;;;10.10;58.00;;;;;;5001166;28;20043;-72
2022/11/06 09:48:23;;;;;;;9.32;6.40;;;10.10;57.80;;;;;;4986966;28;20065;-74
2022/11/06 09:51:15;;;;;;;7.78;7.00;;;10.10;57.80;;;;;;5004294;28;20057;-73
2022/11/06 09:53:51;;;;;;;10.55;6.80;;;10.10;57.90;;;;;;4985800;28;20608;-72
2022/11/06 09:56:19;;;;;;;;;;;10.10;57.70;;;;;;5001254;28;20050;-71
2022/11/06 09:58:46;;;;;;;6.72;6.03;;;10.10;57.50;;;;;;4999272;28;19952;-74
2022/11/06 10:01:21;;;;;;;6.97;6.28;;;10.10;57.40;;;;;;4999568;28;20397;-72
2022/11/06 10:04:00;;;;;;;9.00;6.55;;;10.00;57.50;;;;;;4997397;28;20544;-72
2022/11/06 10:06:27;;;;;;;9.73;6.47;;;10.10;57.70;;;;;;4969146;28;20031;-74
2022/11/06 10:08:57;;;;;;;10.90;6.72;;;10.00;57.80;;;;;;4997939;28;20380;-72
2022/11/06 10:11:23;;;;;;;9.70;7.05;;;10.00;57.90;;;;;;4987481;28;20166;-72
2022/11/06 10:13:49;;;;;;;9.85;6.97;;;10.00;58.20;;;;;;5001927;28;20030;-71
2022/11/06 10:16:41;;;;;;;9.77;7.25;;;10.00;58.60;;;;;;5001669;28;20096;-69
2022/11/06 10:19:37;;;;;;;10.88;6.85;;;10.00;58.90;;;;;;4987744;28;20073;-70
2022/11/06 10:22:40;;;;;;;7.95;6.80;;;10.00;59.20;;;;;;4987025;28;20038;-70
2022/11/06 10:25:49;;;;;;;7.88;6.93;;;10.10;59.30;;;;;;4986300;28;20076;-70
2022/11/06 10:28:25;;;;;;;7.03;6.32;;;10.00;59.60;;;;;;4982147;28;20386;-69
2022/11/06 10:31:23;;;;;;;9.63;6.05;;;10.10;60.60;;;;;;5003757;28;20038;-72
2022/11/06 10:34:13;;;;;;;7.57;6.28;;;10.10;61.50;;;;;;4985829;28;20046;-70
2022/11/06 10:36:47;;;;;;;8.00;6.78;;;10.20;61.90;;;;;;5005374;28;20038;-69
2022/11/06 10:39:22;;;;;;;8.93;5.93;;;10.20;62.30;;;;;;5005348;28;20046;-70
2022/11/06 10:42:06;;;;;;;9.85;5.88;;;10.20;63.00;;;;;;5003684;28;20516;-70
2022/11/06 10:44:37;;;;;;;8.18;6.32;;;10.30;63.40;;;;;;5005549;28;20394;-70
2022/11/06 10:47:09;;;;;;;7.20;5.85;;;10.30;64.10;;;;;;5002776;28;20030;-71
2022/11/06 10:49:52;;;;;;;11.07;6.43;;;10.40;64.60;;;;;;5005076;28;20038;-71
2022/11/06 10:52:27;;;;;;;9.90;5.88;;;10.40;64.40;;;;;;5004278;28;20042;-71
2022/11/06 10:54:58;;;;;;;16.52;6.93;;;10.50;63.90;;;;;;4988326;28;20100;-73
2022/11/06 10:57:46;;;;;;;10.93;6.40;;;10.50;63.40;;;;;;4988962;28;20057;-71
2022/11/06 11:00:16;;;;;;;12.20;6.47;;;10.60;62.90;;;;;;5007926;28;20100;-71
2022/11/06 11:02:56;;;;;;;10.25;6.80;;;10.60;62.50;;;;;;4990532;28;20483;-71
2022/11/06 11:05:25;;;;;;;12.07;7.38;;;10.70;62.00;;;;;;4992490;28;20030;-71
2022/11/06 11:07:53;;;;;;;9.65;6.88;;;10.60;61.40;;;;;;5007893;28;20048;-71
2022/11/06 11:10:22;;;;;;;11.40;6.65;;;10.70;61.10;;;;;;5008224;28;20602;-71
2022/11/06 11:13:00;;;;;;;8.50;6.55;;;10.70;60.80;;;;;;4985021;28;20038;-71
2022/11/06 11:15:30;;;;;;;13.00;6.70;;;10.70;60.50;;;;;;4990599;28;20121;-71
2022/11/06 11:18:10;;;;;;;9.23;6.53;;;10.70;60.20;;;;;;5007232;28;20064;-71
2022/11/06 11:20:41;;;;;;;9.43;6.80;;;10.70;60.00;;;;;;5008011;28;20409;-72
2022/11/06 11:23:21;;;;;;;10.00;6.32;;;10.70;59.80;;;;;;5007028;28;20042;-71
2022/11/06 11:25:56;;;;;;;8.10;6.60;;;10.80;59.70;;;;;;5008555;28;20038;-73
2022/11/06 11:28:24;;;;;;;9.82;6.40;;;10.80;59.50;;;;;;5008007;28;20030;-72
2022/11/06 11:30:53;;;;;;;8.45;6.78;;;10.80;59.40;;;;;;5007963;28;20459;-72
2022/11/06 11:33:23;;;;;;;8.48;6.70;;;10.80;59.30;;;;;;5007581;28;20026;-72
2022/11/06 11:35:50;;;;;;;8.05;6.60;;;10.80;59.00;;;;;;4989341;28;20408;-71
2022/11/06 11:38:17;;;;;;;9.02;6.40;;;10.80;58.90;;;;;;4989829;28;20026;-71
2022/11/06 11:40:44;;;;;;;8.13;6.25;;;10.80;58.70;;;;;;5008041;28;20398;-72
2022/11/06 11:43:26;;;;;;;7.55;6.25;;;10.80;58.50;;;;;;5007764;28;20034;-72
2022/11/06 11:46:09;;;;;;;6.75;6.00;;;10.80;58.40;;;;;;5008283;28;20038;-72
2022/11/06 11:48:56;;;;;;;7.70;5.95;;;10.90;58.40;;;;;;5006762;28;20042;-72
2022/11/06 11:51:28;;;;;;;8.68;6.20;;;10.80;58.30;;;;;;5007326;28;20187;-72
2022/11/06 11:54:05;;;;;;;6.35;5.63;;;10.90;58.20;;;;;;4989890;28;20038;-72
2022/11/06 11:56:32;;;;;;;7.55;6.03;;;10.90;58.00;;;;;;5007776;28;20036;-72
2022/11/06 11:59:00;;;;;;;7.30;5.97;;;10.90;57.90;;;;;;5007151;28;20699;-72
2022/11/06 12:01:37;;;;;;;7.22;5.35;;;10.90;57.80;;;;;;5007318;28;20029;-72
2022/11/06 12:04:15;;;;;;;8.32;5.95;;;10.90;57.90;;;;;;4989806;28;20073;-72
2022/11/06 12:07:03;;;;;;;10.55;6.03;;;10.90;57.90;;;;;;5005127;28;20508;-72
2022/11/06 12:09:33;;;;;;;11.40;6.20;;;10.90;57.90;;;;;;4989135;28;20034;-72
2022/11/06 12:12:01;;;;;;;9.32;5.70;;;10.90;57.60;;;;;;5006868;28;20029;-72
2022/11/06 12:14:30;;;;;;;8.18;5.15;;;10.90;57.60;;;;;;5007788;28;20056;-72
2022/11/06 12:17:18;;;;;;;8.05;5.32;;;11.00;57.50;;;;;;5006030;28;20103;-72
2022/11/06 12:19:53;;;;;;;8.98;5.82;;;10.90;57.40;;;;;;5005418;28;20038;-73
2022/11/06 12:22:33;;;;;;;6.40;5.38;;;11.00;57.30;;;;;;5006606;28;20057;-72
2022/11/06 12:25:04;;;;;;;7.55;5.10;;;10.90;57.20;;;;;;4989037;28;20113;-73
2022/11/06 12:27:41;;;;;;;9.13;6.00;;;11.00;57.30;;;;;;5006481;28;20225;-72
2022/11/06 12:30:12;;;;;;;8.95;6.00;;;11.00;57.30;;;;;;5006651;28;20084;-72
2022/11/06 12:33:02;;;;;;;8.10;6.25;;;11.00;57.10;;;;;;5006815;28;20160;-73
2022/11/06 12:36:03;;;;;;;7.93;5.32;;;11.00;57.10;;;;;;5006495;28;20143;-72
2022/11/06 12:38:29;;;;;;;7.40;5.95;;;11.00;57.40;;;;;;4992526;28;20412;-72
2022/11/06 12:41:05;;;;;;;9.60;5.88;;;11.00;57.40;;;;;;4989063;28;20129;-72
2022/11/06 12:43:47;;;;;;;;;;;11.00;57.30;;;;;;5005995;28;20045;-73
2022/11/06 12:46:13;;;;;;;7.55;6.00;;;11.00;57.10;;;;;;5006943;28;19924;-72
2022/11/06 12:48:49;;;;;;;8.32;5.78;;;11.00;57.00;;;;;;5005920;28;20092;-72
2022/11/06 12:51:36;;;;;;;8.63;6.32;;;11.00;57.10;;;;;;5004110;28;20089;-72
2022/11/06 12:54:22;;;;;;;8.15;6.53;;;11.00;57.10;;;;;;5006125;28;20033;-71
2022/11/06 12:56:54;;;;;;;12.63;6.57;;;11.00;56.80;;;;;;4988089;28;20033;-73
2022/11/06 12:59:45;;;;;;;9.85;6.72;;;11.00;56.70;;;;;;5005800;28;20119;-70
2022/11/06 13:02:34;;;;;;;10.57;6.88;;;11.00;56.80;;;;;;4983832;28;20505;-70
2022/11/06 13:05:21;;;;;;;12.48;7.38;;;11.00;56.70;;;;;;5005726;28;20084;-70
2022/11/06 13:08:09;;;;;;;10.48;6.90;;;11.00;56.80;;;;;;5004073;28;20033;-71
2022/11/06 13:10:51;;;;;;;11.35;8.07;;;11.00;57.10;;;;;;4988639;28;20034;-70
2022/11/06 13:13:25;;;;;;;11.18;7.40;;;11.00;57.40;;;;;;4987795;28;20037;-70
2022/11/06 13:15:59;;;;;;;11.23;7.30;;;10.90;57.60;;;;;;5006170;28;20277;-71
2022/11/06 13:18:33;;;;;;;11.77;8.00;;;11.00;57.70;;;;;;5004407;28;20509;-71
2022/11/06 13:21:35;;;;;;;11.23;7.85;;;10.90;57.90;;;;;;4982819;28;20141;-71